createdAt,value
2017-05-19T00:02:06.981Z,100679.10
2017-05-19T00:04:32.846Z,100671.09
2017-05-19T00:06:58.690Z,100678.24
2017-05-19T00:09:24.653Z,100673.84
2017-05-19T00:11:56.315Z,100676.53
2017-05-19T00:14:22.171Z,100667.97
2017-05-19T00:16:48.007Z,100670.23
2017-05-19T00:19:13.855Z,100661.73
2017-05-19T00:21:39.757Z,100654.09
2017-05-19T00:24:05.596Z,100653.67
2017-05-19T00:35:47.602Z,100649.70
2017-05-19T00:38:13.570Z,100639.42
2017-05-19T00:40:39.433Z,100636.73
2017-05-19T00:54:51.370Z,100636.80
2017-05-19T01:14:56.653Z,100628.56
2017-05-19T01:17:22.511Z,100623.67
2017-05-19T01:19:48.368Z,100621.41
2017-05-19T01:22:14.211Z,100618.84
2017-05-19T01:24:40.042Z,100613.45
2017-05-19T01:35:55.477Z,100618.52
2017-05-19T01:38:21.331Z,100617.67
2017-05-19T01:40:47.178Z,100611.92
2017-05-19T01:54:58.885Z,100610.34
2017-05-19T02:15:03.532Z,100635.69
2017-05-19T02:17:29.414Z,100644.61
2017-05-19T02:19:55.266Z,100638.31
2017-05-19T02:22:21.102Z,100646.87
2017-05-19T02:24:47.067Z,100645.04
2017-05-19T02:36:02.359Z,100658.97
2017-05-19T02:38:28.186Z,100650.91
2017-05-19T02:40:54.038Z,100649.12
2017-05-19T02:55:05.913Z,100688.31
2017-05-19T03:15:10.489Z,100730.59
2017-05-19T03:17:36.325Z,100739.69
2017-05-19T03:20:02.182Z,100734.36
2017-05-19T03:22:28.011Z,100738.45
2017-05-19T03:24:53.959Z,100741.52
2017-05-19T03:36:09.237Z,100752.17
2017-05-19T03:38:35.086Z,100753.52
2017-05-19T03:41:01.034Z,100752.85
2017-05-19T03:55:13.764Z,100792.63
2017-05-19T04:15:20.127Z,100784.10
2017-05-19T04:17:45.998Z,100784.53
2017-05-19T04:20:11.970Z,100804.80
2017-05-19T04:22:37.912Z,100798.52
2017-05-19T04:25:03.774Z,100809.69
2017-05-19T04:36:19.301Z,100848.40
2017-05-19T04:38:45.164Z,100855.61
2017-05-19T04:41:11.027Z,100851.09
2017-05-19T04:55:22.776Z,100902.80
2017-05-19T05:15:27.598Z,100932.55
2017-05-19T05:17:53.456Z,100930.18
2017-05-19T05:20:19.318Z,100940.17
2017-05-19T05:22:45.246Z,100939.74
2017-05-19T05:25:11.118Z,100941.95
2017-05-19T05:36:29.311Z,100942.91
2017-05-19T05:38:55.998Z,100943.23
2017-05-19T05:41:21.874Z,100949.95
2017-05-19T05:55:34.401Z,100962.63
2017-05-19T06:03:59.506Z,100980.84
2017-05-19T06:06:25.425Z,100976.75
2017-05-19T06:08:51.317Z,100982.08
2017-05-19T06:11:17.221Z,100988.73
2017-05-19T06:16:40.029Z,101002.23
2017-05-19T06:19:06.370Z,101004.39
2017-05-19T06:21:32.244Z,101012.89
2017-05-19T06:23:58.108Z,101018.64
2017-05-19T06:26:23.973Z,101025.59
2017-05-19T06:28:55.830Z,101029.59
2017-05-19T06:31:21.734Z,101034.70
2017-05-19T06:33:47.613Z,101036.00
2017-05-19T06:36:13.440Z,101036.42
2017-05-19T06:38:39.366Z,101042.12
2017-05-19T06:41:05.339Z,101041.38
2017-05-19T06:55:18.646Z,101057.58
2017-05-19T07:15:26.271Z,101085.73
2017-05-19T07:17:52.127Z,101092.73
2017-05-19T07:20:17.985Z,101094.45
2017-05-19T07:22:44.586Z,101098.81
2017-05-19T07:25:10.486Z,101101.23
2017-05-19T07:27:36.331Z,101104.36
2017-05-19T07:35:55.151Z,101136.36
2017-05-19T07:38:21.155Z,101134.26
2017-05-19T07:40:47.029Z,101139.84
2017-05-19T07:54:58.764Z,101168.13
2017-05-19T07:57:24.661Z,101166.15
2017-05-19T08:14:32.855Z,101177.41
2017-05-19T08:16:58.707Z,101171.80
2017-05-19T08:19:24.599Z,101168.78
2017-05-19T08:21:50.554Z,101161.25
2017-05-19T08:24:16.426Z,101168.13
2017-05-19T08:26:42.359Z,101168.13
2017-05-19T08:35:01.397Z,101162.49
2017-05-19T08:37:27.242Z,101167.34
2017-05-19T08:39:53.637Z,101160.08
2017-05-19T08:42:19.594Z,101159.15
2017-05-19T08:53:59.710Z,101148.36
2017-05-19T08:56:26.148Z,101152.82
2017-05-19T08:58:58.031Z,101147.44
2017-05-19T09:01:23.887Z,101141.58
2017-05-19T09:03:49.769Z,101147.16
2017-05-19T09:06:15.637Z,101145.12
2017-05-19T09:08:41.642Z,101151.45
2017-05-19T09:11:07.525Z,101151.99
2017-05-19T09:13:33.369Z,101143.03
2017-05-19T09:19:01.448Z,101154.63
2017-05-19T09:21:27.374Z,101164.38
2017-05-19T09:23:53.247Z,101171.47
2017-05-19T09:26:19.834Z,101184.00
2017-05-19T09:28:45.733Z,101180.50
2017-05-19T09:34:08.357Z,101189.53
2017-05-19T09:36:34.213Z,101192.77
2017-05-19T09:39:00.102Z,101202.67
2017-05-19T09:41:26.054Z,101211.96
2017-05-19T09:43:52.088Z,101204.61
2017-05-19T09:55:08.445Z,101211.15
2017-05-19T09:57:34.280Z,101217.48
2017-05-19T10:05:58.886Z,101220.84
2017-05-19T10:08:24.770Z,101214.17
2017-05-19T10:10:50.722Z,101218.69
2017-05-19T10:13:16.576Z,101224.17
2017-05-19T10:15:42.439Z,101224.55
2017-05-19T10:18:08.290Z,101219.22
2017-05-19T10:20:34.157Z,101227.36
2017-05-19T10:22:59.991Z,101222.12
2017-05-19T10:25:25.862Z,101219.21
2017-05-19T10:27:51.773Z,101231.84
2017-05-19T10:36:10.954Z,101241.20
2017-05-19T10:38:36.838Z,101235.05
2017-05-19T10:41:02.767Z,101236.83
2017-05-19T10:43:28.593Z,101235.54
2017-05-19T10:46:00.342Z,101237.41
2017-05-19T10:48:26.345Z,101241.02
2017-05-19T10:50:52.192Z,101245.83
2017-05-19T10:53:18.118Z,101245.64
2017-05-19T10:55:44.019Z,101245.75
2017-05-19T10:58:09.852Z,101250.84
2017-05-19T11:15:17.954Z,101254.47
2017-05-19T11:17:43.895Z,101251.48
2017-05-19T11:20:09.773Z,101251.53
2017-05-19T11:22:35.625Z,101255.14
2017-05-19T11:25:01.502Z,101249.81
2017-05-19T11:27:27.351Z,101257.01
2017-05-19T11:29:58.335Z,101258.02
2017-05-19T11:32:24.192Z,101269.25
2017-05-19T11:34:50.044Z,101272.95
2017-05-19T11:37:15.949Z,101269.55
2017-05-19T11:39:41.853Z,101278.09
2017-05-19T11:42:07.826Z,101287.59
2017-05-19T11:44:33.747Z,101284.33
2017-05-19T11:50:01.950Z,101290.85
2017-05-19T11:52:27.905Z,101289.56
2017-05-19T11:54:53.760Z,101288.70
2017-05-19T11:57:19.639Z,101293.16
2017-05-19T12:14:29.667Z,101309.48
2017-05-19T12:17:01.443Z,101305.84
2017-05-19T12:19:28.074Z,101300.18
2017-05-19T12:21:54.691Z,101298.41
2017-05-19T12:24:20.604Z,101299.75
2017-05-19T12:26:46.714Z,101303.69
2017-05-19T12:29:12.605Z,101301.38
2017-05-19T12:34:36.061Z,101304.41
2017-05-19T12:37:02.726Z,101308.99
2017-05-19T12:39:28.588Z,101303.68
2017-05-19T12:41:54.435Z,101292.60
2017-05-19T12:44:20.311Z,101294.64
2017-05-19T12:55:35.655Z,101300.26
2017-05-19T12:58:01.431Z,101299.11
2017-05-19T13:15:11.850Z,101299.54
2017-05-19T13:35:20.892Z,101304.45
2017-05-19T13:37:46.774Z,101303.39
2017-05-19T13:40:13.369Z,101306.95
2017-05-19T13:42:39.347Z,101297.92
2017-05-19T13:45:05.242Z,101297.81
2017-05-19T13:56:20.719Z,101295.36
2017-05-19T13:58:46.530Z,101294.50
2017-05-19T14:13:04.447Z,101300.73
2017-05-19T14:15:30.296Z,101298.52
2017-05-19T14:18:01.953Z,101300.35
2017-05-19T14:20:27.822Z,101297.95
2017-05-19T14:22:53.659Z,101301.06
2017-05-19T14:25:19.594Z,101302.66
2017-05-19T14:27:45.510Z,101309.95
2017-05-19T14:30:11.393Z,101308.70
2017-05-19T14:35:34.094Z,101324.92
2017-05-19T14:38:00.068Z,101324.83
2017-05-19T14:40:25.955Z,101332.59
2017-05-19T14:42:52.201Z,101322.56
2017-05-19T14:45:18.021Z,101339.84
2017-05-19T14:56:34.703Z,101343.23
2017-05-19T14:59:00.564Z,101346.44
2017-05-19T15:16:12.405Z,101331.86
2017-05-19T15:18:38.338Z,101329.69
2017-05-19T15:21:04.210Z,101320.91
2017-05-19T15:23:30.279Z,101326.19
2017-05-19T15:25:56.800Z,101325.98
2017-05-19T15:28:23.211Z,101334.63
2017-05-19T15:30:49.022Z,101327.91
2017-05-19T15:36:11.649Z,101316.52
2017-05-19T15:38:37.754Z,101321.73
2017-05-19T15:41:03.610Z,101319.36
2017-05-19T15:43:30.226Z,101322.68
2017-05-19T15:48:27.311Z,101331.28
2017-05-19T15:50:53.528Z,101327.12
2017-05-19T15:53:20.150Z,101325.95
2017-05-19T15:55:46.041Z,101326.38
2017-05-19T15:58:14.330Z,101324.45
2017-05-19T16:00:41.148Z,101330.80
2017-05-19T16:03:07.010Z,101331.11
2017-05-19T16:05:32.863Z,101335.28
2017-05-19T16:07:59.457Z,101333.40
2017-05-19T16:10:25.315Z,101333.73
2017-05-19T16:12:51.902Z,101335.18
2017-05-19T16:15:17.838Z,101336.88
2017-05-19T16:17:44.317Z,101338.17
2017-05-19T16:20:10.142Z,101342.10
2017-05-19T16:22:36.723Z,101347.20
2017-05-19T16:25:02.658Z,101342.25
2017-05-19T16:27:28.839Z,101336.49
2017-05-19T16:29:54.705Z,101330.68
2017-05-19T16:32:20.559Z,101331.49
2017-05-19T16:34:46.456Z,101330.80
2017-05-19T16:37:12.339Z,101334.37
2017-05-19T16:39:38.280Z,101350.69
2017-05-19T16:44:37.026Z,101371.81
2017-05-19T16:47:02.963Z,101361.16
2017-05-19T16:49:28.892Z,101367.01
2017-05-19T16:51:54.808Z,101364.73
2017-05-19T16:54:23.573Z,101367.12
2017-05-19T16:56:46.593Z,101365.50
2017-05-19T16:59:12.899Z,101359.13
2017-05-19T17:01:39.908Z,101355.36
2017-05-19T17:04:05.780Z,101360.80
2017-05-19T17:06:31.663Z,101358.93
2017-05-19T17:08:57.511Z,101375.45
2017-05-19T17:11:23.586Z,101382.45
2017-05-19T17:13:49.393Z,101378.25
2017-05-19T17:16:15.758Z,101372.06
2017-05-19T17:18:41.598Z,101381.64
2017-05-19T17:21:07.427Z,101383.16
2017-05-19T17:23:33.294Z,101387.05
2017-05-19T17:25:59.146Z,101383.04
2017-05-19T17:28:25.096Z,101379.29
2017-05-19T17:30:50.962Z,101378.62
2017-05-19T17:33:16.832Z,101375.11
2017-05-19T17:35:42.738Z,101373.29
2017-05-19T17:38:08.581Z,101369.97
2017-05-19T17:40:34.518Z,101378.33
2017-05-19T17:43:00.398Z,101387.50
2017-05-19T17:45:26.243Z,101376.53
2017-05-19T17:47:52.095Z,101387.19
2017-05-19T17:50:18.012Z,101399.98
2017-05-19T17:52:43.923Z,101400.46
2017-05-19T17:55:09.798Z,101389.94
2017-05-19T17:57:35.659Z,101382.81
2017-05-19T18:00:01.511Z,101388.55
2017-05-19T18:02:27.387Z,101380.04
2017-05-19T18:04:53.308Z,101379.99
2017-05-19T18:07:19.177Z,101392.61
2017-05-19T18:09:45.050Z,101395.20
2017-05-19T18:12:10.943Z,101385.16
2017-05-19T18:14:36.830Z,101388.56
2017-05-19T18:17:02.911Z,101400.34
2017-05-19T18:19:28.758Z,101397.23
2017-05-19T18:21:54.723Z,101407.55
2017-05-19T18:24:20.573Z,101411.44
2017-05-19T18:26:46.522Z,101421.48
2017-05-19T18:29:12.474Z,101424.23
2017-05-19T18:31:38.322Z,101419.59
2017-05-19T18:34:04.354Z,101422.68
2017-05-19T18:36:30.161Z,101425.72
2017-05-19T18:38:56.006Z,101430.95
2017-05-19T18:41:21.994Z,101433.59
2017-05-19T18:43:48.591Z,101432.25
2017-05-19T18:46:14.483Z,101444.94
2017-05-19T18:48:40.335Z,101462.84
2017-05-19T18:51:06.186Z,101460.16
2017-05-19T18:53:32.316Z,101461.13
2017-05-19T18:55:58.178Z,101458.81
2017-05-19T18:58:24.082Z,101455.89
2017-05-19T19:00:49.938Z,101452.62
2017-05-19T19:03:15.821Z,101463.61
2017-05-19T19:05:41.848Z,101467.16
2017-05-19T19:08:07.688Z,101468.02
2017-05-19T19:10:33.561Z,101477.19
2017-05-19T19:12:59.399Z,101476.45
2017-05-19T19:15:25.250Z,101480.72
2017-05-19T19:17:51.167Z,101490.79
2017-05-19T19:20:17.062Z,101500.05
2017-05-19T19:22:42.934Z,101496.93
2017-05-19T19:25:08.775Z,101504.13
2017-05-19T19:27:34.636Z,101502.00
2017-05-19T19:30:00.625Z,101501.19
2017-05-19T19:32:26.455Z,101506.78
2017-05-19T19:34:53.060Z,101508.27
2017-05-19T19:37:18.937Z,101510.13
2017-05-19T19:39:44.812Z,101517.80
2017-05-19T19:42:10.725Z,101511.95
2017-05-19T19:44:36.558Z,101512.52
2017-05-19T19:47:02.437Z,101506.72
2017-05-19T19:49:28.315Z,101506.28
2017-05-19T19:51:54.931Z,101511.37
2017-05-19T19:54:20.985Z,101510.03
2017-05-19T19:56:46.840Z,101511.56
2017-05-19T19:59:12.704Z,101506.67
2017-05-19T20:01:38.561Z,101509.88
2017-05-19T20:04:04.409Z,101511.83
2017-05-19T20:06:30.351Z,101519.94
2017-05-19T20:08:56.207Z,101517.34
2017-05-19T20:11:22.082Z,101521.02
2017-05-19T20:13:47.980Z,101518.36
2017-05-19T20:16:13.828Z,101516.28
2017-05-19T20:18:39.750Z,101523.55
2017-05-19T20:21:05.609Z,101519.13
2017-05-19T20:23:31.506Z,101522.67
2017-05-19T20:25:57.383Z,101530.83
2017-05-19T20:28:23.224Z,101544.78
2017-05-19T20:30:49.154Z,101549.19
2017-05-19T20:33:15.037Z,101548.37
2017-05-19T20:35:40.888Z,101558.67
2017-05-19T20:38:06.782Z,101565.52
2017-05-19T20:40:32.646Z,101576.22
2017-05-19T20:42:58.549Z,101570.02
2017-05-19T20:45:24.450Z,101564.61
2017-05-19T20:47:50.323Z,101567.34
2017-05-19T20:50:16.197Z,101549.59
2017-05-19T20:52:42.092Z,101552.62
2017-05-19T20:55:08.126Z,101551.27
2017-05-19T20:57:33.973Z,101550.45
2017-05-19T20:59:59.826Z,101546.86
2017-05-19T21:02:25.696Z,101537.07
2017-05-19T21:04:51.587Z,101532.75
2017-05-19T21:07:17.635Z,101526.94
2017-05-19T21:09:43.486Z,101529.06
2017-05-19T21:12:09.331Z,101522.05
2017-05-19T21:14:35.239Z,101532.27
2017-05-19T21:17:01.122Z,101531.87
2017-05-19T21:19:27.077Z,101540.89
2017-05-19T21:21:52.939Z,101542.79
2017-05-19T21:24:18.814Z,101541.22
2017-05-19T21:26:44.661Z,101543.38
2017-05-19T21:29:10.519Z,101544.16
2017-05-19T21:31:36.462Z,101544.11
2017-05-19T21:34:02.309Z,101543.98
2017-05-19T21:36:28.175Z,101536.36
2017-05-19T21:38:54.010Z,101543.03
2017-05-19T21:41:19.910Z,101546.10
2017-05-19T21:43:45.866Z,101549.70
2017-05-19T21:46:11.842Z,101556.84
2017-05-19T21:48:38.436Z,101566.59
2017-05-19T21:51:04.301Z,101572.64
2017-05-19T21:53:30.183Z,101578.23
2017-05-19T21:55:56.223Z,101580.72
2017-05-19T21:58:22.105Z,101579.28
2017-05-19T22:00:47.954Z,101579.11
2017-05-19T22:03:13.804Z,101576.34
2017-05-19T22:05:39.647Z,101576.67
2017-05-19T22:08:05.654Z,101578.11
2017-05-19T22:10:31.507Z,101583.14
2017-05-19T22:12:57.393Z,101585.56
2017-05-19T22:15:23.262Z,101592.84
2017-05-19T22:17:49.283Z,101581.97
2017-05-19T22:20:15.334Z,101585.42
2017-05-19T22:22:41.213Z,101594.61
2017-05-19T22:25:07.059Z,101601.93
2017-05-19T22:27:32.948Z,101598.20
2017-05-19T22:29:58.792Z,101598.34
2017-05-19T22:32:24.771Z,101604.19
2017-05-19T22:34:50.635Z,101602.80
2017-05-19T22:37:16.530Z,101609.52
2017-05-19T22:39:42.571Z,101609.03
2017-05-19T22:42:08.414Z,101609.42
2017-05-19T22:44:34.495Z,101606.66
2017-05-19T22:47:00.482Z,101607.56
2017-05-19T22:49:26.498Z,101601.80
2017-05-19T22:51:52.397Z,101605.35
2017-05-19T22:54:18.334Z,101603.58
2017-05-19T22:56:44.331Z,101600.98
2017-05-19T22:59:10.232Z,101594.66
2017-05-19T23:01:36.222Z,101595.17
2017-05-19T23:04:02.254Z,101598.38
2017-05-19T23:06:28.087Z,101596.61
2017-05-19T23:08:54.029Z,101600.21
2017-05-19T23:11:19.862Z,101612.77
2017-05-19T23:13:45.718Z,101594.84
2017-05-19T23:16:11.614Z,101610.60
2017-05-19T23:18:37.452Z,101610.17
2017-05-19T23:21:03.540Z,101598.27
2017-05-19T23:23:29.445Z,101609.27
2017-05-19T23:25:55.526Z,101607.53
2017-05-19T23:28:21.400Z,101607.14
2017-05-19T23:30:47.241Z,101604.06
2017-05-19T23:33:13.227Z,101602.55
2017-05-19T23:35:39.090Z,101610.91
2017-05-19T23:38:04.937Z,101610.98
2017-05-19T23:40:30.785Z,101615.58
2017-05-19T23:42:56.622Z,101616.48
2017-05-19T23:45:22.586Z,101620.13
2017-05-19T23:47:48.463Z,101611.42
2017-05-19T23:50:14.308Z,101610.42
2017-05-19T23:52:40.175Z,101624.84
2017-05-19T23:55:06.044Z,101624.02
2017-05-19T23:57:32.128Z,101628.09
2017-05-19T23:59:57.965Z,101631.25
